FDB34RS LBSF-OMDB
Flight info
| Callsign | FDB34RS |
|---|---|
| Flight time | N/A |
| Altitude | 31000 |
| Route | DILVO DCT NIKTI UN127 SUTIS DCT SOTIX DCT PAXIS Y707 OBRAN/N0470F330 L321 REXUM M872 WEJ T510 KULKI M872 BDB Y214 RAPMA/N0477F350 DCT KUVSO DCT KATIT DCT PEKEM M628 RIGIL G783 ASPED Q308 KIPOK Q568 IMPED |
| Aircraft | B738/M-SDE2E3FGHIRWXY/LB1 |
Departure
| Time | 2026-04-28 15:35 |
|---|---|
| Airport | Sofia Airport (LBSF) |
Arrival
| Time | N/A |
|---|---|
| Airport | Dubai International Airport (OMDB) |
| Time | Latitude | Longitude | Altitude | Speed | Heading |
|---|---|---|---|---|---|
| 2026-04-28 14:54 | 42.69030 | 23.41526 | 1744 ft | 0 kts | 251° |
| 2026-04-28 15:25 | 42.69033 | 23.41537 | 1743 ft | 4 kts | 251° |
| 2026-04-28 15:25 | 42.69039 | 23.41565 | 1742 ft | 3 kts | 251° |
| 2026-04-28 15:26 | 42.69051 | 23.41595 | 1742 ft | 4 kts | 213° |
| 2026-04-28 15:26 | 42.69074 | 23.41602 | 1742 ft | 4 kts | 167° |
| 2026-04-28 15:26 | 42.69098 | 23.41592 | 1747 ft | 4 kts | 161° |
| 2026-04-28 15:26 | 42.69115 | 23.41584 | 1742 ft | 0 kts | 161° |
| 2026-04-28 15:29 | 42.69113 | 23.41586 | 1742 ft | 2 kts | 161° |
| 2026-04-28 15:29 | 42.69082 | 23.41617 | 1742 ft | 9 kts | 113° |
| 2026-04-28 15:29 | 42.69097 | 23.41727 | 1745 ft | 15 kts | 73° |
| 2026-04-28 15:29 | 42.69134 | 23.41889 | 1747 ft | 21 kts | 72° |
| 2026-04-28 15:30 | 42.69181 | 23.42097 | 1745 ft | 25 kts | 73° |
| 2026-04-28 15:30 | 42.69231 | 23.42318 | 1747 ft | 17 kts | 72° |
| 2026-04-28 15:30 | 42.69310 | 23.42419 | 1752 ft | 16 kts | 14° |
| 2026-04-28 15:30 | 42.69409 | 23.42467 | 1749 ft | 16 kts | 65° |
| 2026-04-28 15:31 | 42.69406 | 23.42630 | 1744 ft | 21 kts | 96° |
| 2026-04-28 15:31 | 42.69392 | 23.42885 | 1745 ft | 32 kts | 94° |
| 2026-04-28 15:31 | 42.69376 | 23.43176 | 1748 ft | 30 kts | 94° |
| 2026-04-28 15:31 | 42.69361 | 23.43445 | 1748 ft | 28 kts | 96° |
| 2026-04-28 15:32 | 42.69344 | 23.43703 | 1748 ft | 26 kts | 94° |
| 2026-04-28 15:32 | 42.69336 | 23.43857 | 1762 ft | 10 kts | 94° |
| 2026-04-28 15:32 | 42.69365 | 23.43937 | 1765 ft | 10 kts | 29° |
| 2026-04-28 15:32 | 42.69393 | 23.43946 | 1768 ft | 0 kts | 8° |
| 2026-04-28 15:34 | 42.69453 | 23.43956 | 1766 ft | 16 kts | 3° |
| 2026-04-28 15:34 | 42.69521 | 23.43793 | 1765 ft | 30 kts | 271° |
| 2026-04-28 15:34 | 42.69542 | 23.43401 | 1752 ft | 65 kts | 274° |
| 2026-04-28 15:35 | 42.69610 | 23.42468 | 1746 ft | 131 kts | 272° |
| 2026-04-28 15:35 | 42.69861 | 23.39083 | 2081 ft | 212 kts | 279° |
| 2026-04-28 15:35 | 42.70011 | 23.37088 | 2906 ft | 209 kts | 278° |
| 2026-04-28 15:36 | 42.70393 | 23.35271 | 3829 ft | 196 kts | 304° |
| 2026-04-28 15:36 | 42.71303 | 23.33876 | 4220 ft | 198 kts | 332° |
| 2026-04-28 15:36 | 42.72568 | 23.33615 | 4936 ft | 186 kts | 9° |
| 2026-04-28 15:36 | 42.73889 | 23.33926 | 5276 ft | 201 kts | 5° |
| 2026-04-28 15:37 | 42.75360 | 23.34082 | 5422 ft | 221 kts | 1° |
| 2026-04-28 15:37 | 42.76879 | 23.34096 | 5714 ft | 233 kts | 356° |
| 2026-04-28 15:37 | 42.78557 | 23.33974 | 5985 ft | 252 kts | 353° |
| 2026-04-28 15:37 | 42.80364 | 23.33741 | 6432 ft | 265 kts | 352° |
| 2026-04-28 15:38 | 42.82188 | 23.33456 | 7105 ft | 266 kts | 351° |
| 2026-04-28 15:38 | 42.84046 | 23.33144 | 7762 ft | 270 kts | 350° |
| 2026-04-28 15:38 | 42.85917 | 23.32997 | 8388 ft | 277 kts | 6° |
| 2026-04-28 15:38 | 42.87745 | 23.33940 | 9050 ft | 285 kts | 32° |
| 2026-04-28 15:39 | 42.89148 | 23.35870 | 9700 ft | 295 kts | 56° |
| 2026-04-28 15:39 | 42.89881 | 23.38525 | 10260 ft | 306 kts | 81° |
| 2026-04-28 15:39 | 42.89797 | 23.41531 | 10425 ft | 329 kts | 104° |
| 2026-04-28 15:39 | 42.88874 | 23.44431 | 10603 ft | 348 kts | 125° |
| 2026-04-28 15:40 | 42.87166 | 23.46868 | 10751 ft | 365 kts | 146° |
| 2026-04-28 15:40 | 42.84826 | 23.48400 | 10894 ft | 379 kts | 165° |
| 2026-04-28 15:40 | 42.82252 | 23.49340 | 11075 ft | 394 kts | 168° |
| 2026-04-28 15:40 | 42.79560 | 23.50296 | 11479 ft | 402 kts | 166° |
| 2026-04-28 15:41 | 42.76869 | 23.51419 | 12074 ft | 405 kts | 164° |
| 2026-04-28 15:41 | 42.74178 | 23.52627 | 12656 ft | 408 kts | 163° |
| 2026-04-28 15:41 | 42.71514 | 23.53961 | 13179 ft | 413 kts | 159° |
| 2026-04-28 15:41 | 42.68870 | 23.55542 | 13750 ft | 416 kts | 158° |
| 2026-04-28 15:42 | 42.66257 | 23.57181 | 14355 ft | 417 kts | 157° |
| 2026-04-28 15:42 | 42.63587 | 23.58848 | 14814 ft | 422 kts | 158° |
| 2026-04-28 15:42 | 42.60883 | 23.60504 | 15235 ft | 427 kts | 158° |
| 2026-04-28 15:42 | 42.58177 | 23.62132 | 15696 ft | 431 kts | 158° |
| 2026-04-28 15:43 | 42.55416 | 23.63779 | 16176 ft | 434 kts | 158° |
| 2026-04-28 15:43 | 42.52665 | 23.65424 | 16614 ft | 438 kts | 156° |
| 2026-04-28 15:43 | 42.50056 | 23.67662 | 16986 ft | 446 kts | 137° |
| 2026-04-28 15:43 | 42.47899 | 23.70674 | 17491 ft | 448 kts | 134° |
| 2026-04-28 15:44 | 42.45730 | 23.73754 | 17913 ft | 452 kts | 134° |
| 2026-04-28 15:44 | 42.43516 | 23.76826 | 18332 ft | 456 kts | 135° |
| 2026-04-28 15:44 | 42.41298 | 23.79847 | 18741 ft | 458 kts | 135° |
| 2026-04-28 15:44 | 42.39032 | 23.82904 | 19137 ft | 460 kts | 135° |
| 2026-04-28 15:45 | 42.36743 | 23.85979 | 19539 ft | 463 kts | 135° |
| 2026-04-28 15:45 | 42.34471 | 23.89033 | 19910 ft | 466 kts | 135° |
| 2026-04-28 15:45 | 42.32097 | 23.92046 | 20277 ft | 469 kts | 143° |
| 2026-04-28 15:45 | 42.29230 | 23.94140 | 20611 ft | 469 kts | 163° |
| 2026-04-28 15:46 | 42.26062 | 23.95115 | 21033 ft | 466 kts | 173° |
| 2026-04-28 15:46 | 42.22874 | 23.95835 | 21364 ft | 469 kts | 173° |
| 2026-04-28 15:46 | 42.19617 | 23.96566 | 21679 ft | 473 kts | 173° |
| 2026-04-28 15:46 | 42.16386 | 23.97305 | 22001 ft | 475 kts | 172° |
| 2026-04-28 15:47 | 42.13107 | 23.98067 | 22376 ft | 478 kts | 172° |
| 2026-04-28 15:47 | 42.09813 | 23.98861 | 22689 ft | 480 kts | 172° |
| 2026-04-28 15:47 | 42.06545 | 23.99658 | 23012 ft | 482 kts | 172° |
| 2026-04-28 15:47 | 42.03211 | 24.00471 | 23348 ft | 484 kts | 172° |
| 2026-04-28 15:48 | 41.99914 | 24.01273 | 23602 ft | 488 kts | 172° |
| 2026-04-28 15:48 | 41.96548 | 24.02091 | 23843 ft | 491 kts | 172° |
| 2026-04-28 15:48 | 41.93176 | 24.02908 | 24123 ft | 492 kts | 172° |
| 2026-04-28 15:48 | 41.89828 | 24.03720 | 24400 ft | 494 kts | 172° |
| 2026-04-28 15:49 | 41.86423 | 24.04544 | 24658 ft | 495 kts | 172° |
| 2026-04-28 15:49 | 41.83056 | 24.05356 | 24903 ft | 497 kts | 172° |
| 2026-04-28 15:49 | 41.79629 | 24.06184 | 25143 ft | 499 kts | 172° |
| 2026-04-28 15:49 | 41.76196 | 24.07012 | 25407 ft | 500 kts | 172° |
| 2026-04-28 15:50 | 41.72752 | 24.07842 | 25658 ft | 502 kts | 172° |
| 2026-04-28 15:50 | 41.69329 | 24.08666 | 25886 ft | 504 kts | 172° |
| 2026-04-28 15:50 | 41.65869 | 24.09498 | 26178 ft | 504 kts | 172° |
| 2026-04-28 15:50 | 41.62416 | 24.10328 | 26551 ft | 502 kts | 172° |
| 2026-04-28 15:51 | 41.59010 | 24.11147 | 26927 ft | 501 kts | 171° |
| 2026-04-28 15:51 | 41.55618 | 24.12318 | 27225 ft | 503 kts | 162° |
| 2026-04-28 15:51 | 41.52373 | 24.14156 | 27524 ft | 505 kts | 153° |
| 2026-04-28 15:51 | 41.49397 | 24.16600 | 27841 ft | 505 kts | 146° |
| 2026-04-28 15:52 | 41.46526 | 24.19242 | 28158 ft | 504 kts | 145° |
| 2026-04-28 15:52 | 41.43611 | 24.21926 | 28437 ft | 505 kts | 146° |
| 2026-04-28 15:52 | 41.40739 | 24.24542 | 28773 ft | 504 kts | 146° |
| 2026-04-28 15:52 | 41.37815 | 24.27172 | 29103 ft | 503 kts | 146° |
| 2026-04-28 15:53 | 41.34906 | 24.29763 | 29564 ft | 500 kts | 146° |
| 2026-04-28 15:53 | 41.32040 | 24.32304 | 29909 ft | 499 kts | 146° |
| 2026-04-28 15:53 | 41.29145 | 24.34866 | 30189 ft | 499 kts | 146° |
| 2026-04-28 15:53 | 41.26269 | 24.37411 | 30443 ft | 499 kts | 146° |
| 2026-04-28 15:54 | 41.23365 | 24.39982 | 30708 ft | 499 kts | 147° |
| 2026-04-28 15:54 | 41.20462 | 24.42547 | 30949 ft | 499 kts | 147° |
| 2026-04-28 15:54 | 41.17511 | 24.44897 | 31061 ft | 500 kts | 153° |
| 2026-04-28 15:54 | 41.14371 | 24.46960 | 31063 ft | 500 kts | 156° |
| 2026-04-28 15:55 | 41.08096 | 24.50815 | 31064 ft | 496 kts | 156° |
| 2026-04-28 15:55 | 41.01854 | 24.54731 | 31071 ft | 494 kts | 155° |
| 2026-04-28 15:56 | 40.95702 | 24.58680 | 31068 ft | 492 kts | 155° |
| 2026-04-28 15:56 | 40.89549 | 24.62612 | 31073 ft | 492 kts | 155° |
| 2026-04-28 15:57 | 40.83370 | 24.66485 | 31075 ft | 492 kts | 155° |
| 2026-04-28 15:57 | 40.77143 | 24.70382 | 31098 ft | 494 kts | 155° |
| 2026-04-28 15:58 | 40.70973 | 24.74369 | 31077 ft | 496 kts | 154° |
| 2026-04-28 15:58 | 40.64617 | 24.77836 | 31099 ft | 496 kts | 161° |
| 2026-04-28 15:59 | 40.59163 | 24.80342 | 31085 ft | 497 kts | 162° |
| 2026-04-28 15:59 | 40.51530 | 24.83816 | 31086 ft | 498 kts | 162° |
| 2026-04-28 16:00 | 40.45004 | 24.86865 | 31082 ft | 498 kts | 161° |
| 2026-04-28 16:00 | 40.38502 | 24.89942 | 31085 ft | 498 kts | 161° |
| 2026-04-28 16:01 | 40.32013 | 24.93013 | 31082 ft | 497 kts | 161° |
| 2026-04-28 16:01 | 40.25527 | 24.96074 | 31084 ft | 496 kts | 161° |
| 2026-04-28 16:02 | 40.19010 | 24.99139 | 31086 ft | 494 kts | 161° |
| 2026-04-28 16:02 | 40.12567 | 25.02163 | 31086 ft | 493 kts | 161° |
| 2026-04-28 16:03 | 40.06123 | 25.05181 | 31077 ft | 491 kts | 161° |
| 2026-04-28 16:03 | 39.99709 | 25.08179 | 31075 ft | 490 kts | 161° |
| 2026-04-28 16:04 | 39.93270 | 25.11183 | 31077 ft | 490 kts | 161° |
| 2026-04-28 16:04 | 39.86885 | 25.14155 | 31078 ft | 489 kts | 161° |
| 2026-04-28 16:05 | 39.80445 | 25.17148 | 31080 ft | 489 kts | 161° |
| 2026-04-28 16:05 | 39.74052 | 25.20112 | 31078 ft | 489 kts | 161° |
| 2026-04-28 16:06 | 39.67658 | 25.23072 | 31082 ft | 489 kts | 161° |
| 2026-04-28 16:06 | 39.61224 | 25.26044 | 31081 ft | 489 kts | 161° |
| 2026-04-28 16:07 | 39.54825 | 25.28994 | 31070 ft | 489 kts | 160° |
| 2026-04-28 16:08 | 39.45189 | 25.33425 | 31085 ft | 490 kts | 160° |
| 2026-04-28 16:08 | 39.38740 | 25.36384 | 31077 ft | 491 kts | 160° |
| 2026-04-28 16:09 | 39.29096 | 25.40797 | 31065 ft | 492 kts | 160° |
| 2026-04-28 16:10 | 39.19422 | 25.45211 | 31065 ft | 493 kts | 160° |
| 2026-04-28 16:10 | 39.09717 | 25.49626 | 31064 ft | 493 kts | 160° |
| 2026-04-28 16:11 | 38.96775 | 25.55494 | 31062 ft | 493 kts | 160° |
| 2026-04-28 16:12 | 38.88124 | 25.59404 | 31054 ft | 493 kts | 161° |
| 2026-04-28 16:13 | 38.78425 | 25.63775 | 31053 ft | 493 kts | 161° |
| 2026-04-28 16:14 | 38.65482 | 25.69588 | 31047 ft | 493 kts | 160° |
| 2026-04-28 16:15 | 38.52502 | 25.75397 | 31050 ft | 493 kts | 160° |
| 2026-04-28 16:15 | 38.46060 | 25.78271 | 31037 ft | 494 kts | 160° |
| 2026-04-28 16:16 | 38.36328 | 25.82603 | 31024 ft | 494 kts | 160° |
| 2026-04-28 16:17 | 38.26568 | 25.86934 | 31031 ft | 495 kts | 160° |
| 2026-04-28 16:17 | 38.20069 | 25.89812 | 31020 ft | 495 kts | 160° |
| 2026-04-28 16:18 | 38.13560 | 25.92689 | 31026 ft | 496 kts | 160° |
| 2026-04-28 16:18 | 38.07041 | 25.95564 | 31034 ft | 496 kts | 160° |
| 2026-04-28 16:19 | 38.00563 | 25.98417 | 31027 ft | 496 kts | 160° |
| 2026-04-28 16:19 | 37.94001 | 26.01300 | 31016 ft | 496 kts | 160° |
| 2026-04-28 16:20 | 37.87503 | 26.04151 | 31026 ft | 496 kts | 160° |
| 2026-04-28 16:20 | 37.80985 | 26.07005 | 31014 ft | 495 kts | 160° |
| 2026-04-28 16:21 | 37.74487 | 26.09844 | 31015 ft | 494 kts | 160° |
| 2026-04-28 16:21 | 37.67994 | 26.12676 | 31018 ft | 494 kts | 160° |
| 2026-04-28 16:22 | 37.61506 | 26.15501 | 31009 ft | 493 kts | 160° |
| 2026-04-28 16:22 | 37.55040 | 26.18315 | 30987 ft | 492 kts | 160° |
| 2026-04-28 16:23 | 37.48580 | 26.21119 | 31009 ft | 491 kts | 161° |
| 2026-04-28 16:23 | 37.42133 | 26.23906 | 31007 ft | 491 kts | 161° |
| 2026-04-28 16:24 | 37.35670 | 26.26697 | 31013 ft | 491 kts | 161° |
| 2026-04-28 16:24 | 37.29189 | 26.29494 | 30988 ft | 491 kts | 161° |
| 2026-04-28 16:25 | 37.22744 | 26.32269 | 30989 ft | 491 kts | 161° |
| 2026-04-28 16:25 | 37.16299 | 26.35039 | 30997 ft | 490 kts | 162° |
| 2026-04-28 16:26 | 37.09850 | 26.37806 | 30984 ft | 490 kts | 162° |
| 2026-04-28 16:26 | 37.03386 | 26.40576 | 30990 ft | 489 kts | 162° |
| 2026-04-28 16:27 | 36.96954 | 26.43326 | 30982 ft | 489 kts | 162° |
| 2026-04-28 16:28 | 36.87335 | 26.47429 | 30991 ft | 488 kts | 162° |
| 2026-04-28 16:28 | 36.80907 | 26.50165 | 30989 ft | 488 kts | 162° |
| 2026-04-28 16:29 | 36.71278 | 26.54254 | 30983 ft | 488 kts | 162° |
| 2026-04-28 16:30 | 36.61646 | 26.58334 | 30994 ft | 487 kts | 163° |
| 2026-04-28 16:30 | 36.55186 | 26.61064 | 30994 ft | 488 kts | 163° |
| 2026-04-28 16:31 | 36.48761 | 26.63775 | 30983 ft | 487 kts | 163° |
| 2026-04-28 16:31 | 36.42385 | 26.66460 | 30973 ft | 487 kts | 163° |
| 2026-04-28 16:32 | 36.35942 | 26.69169 | 30987 ft | 487 kts | 163° |
| 2026-04-28 16:32 | 36.26296 | 26.73216 | 30986 ft | 487 kts | 163° |
| 2026-04-28 16:33 | 36.20991 | 26.75436 | 30974 ft | 487 kts | 163° |
| 2026-04-28 16:33 | 36.13504 | 26.78566 | 30986 ft | 487 kts | 163° |
| 2026-04-28 16:34 | 36.07043 | 26.81261 | 30986 ft | 487 kts | 163° |
| 2026-04-28 16:34 | 36.00643 | 26.83927 | 30990 ft | 487 kts | 163° |
| 2026-04-28 16:35 | 35.94238 | 26.86590 | 30981 ft | 487 kts | 164° |
| 2026-04-28 16:35 | 35.87792 | 26.89266 | 30993 ft | 487 kts | 164° |
| 2026-04-28 16:36 | 35.81295 | 26.91445 | 30996 ft | 484 kts | 172° |
| 2026-04-28 16:36 | 35.74656 | 26.92910 | 30986 ft | 483 kts | 173° |
| 2026-04-28 16:37 | 35.68054 | 26.94322 | 30975 ft | 483 kts | 173° |
| 2026-04-28 16:38 | 35.58129 | 26.96559 | 30980 ft | 483 kts | 172° |
| 2026-04-28 16:38 | 35.51533 | 26.98079 | 30973 ft | 483 kts | 172° |
| 2026-04-28 16:39 | 35.44922 | 26.99600 | 30961 ft | 483 kts | 172° |
| 2026-04-28 16:39 | 35.38330 | 27.01075 | 30969 ft | 482 kts | 172° |
| 2026-04-28 16:40 | 35.31710 | 27.02596 | 30976 ft | 483 kts | 172° |
| 2026-04-28 16:40 | 35.25101 | 27.04127 | 30977 ft | 484 kts | 172° |
| 2026-04-28 16:41 | 35.18477 | 27.05645 | 30979 ft | 484 kts | 172° |
| 2026-04-28 16:41 | 35.11884 | 27.07146 | 30986 ft | 485 kts | 172° |
| 2026-04-28 16:42 | 35.05239 | 27.08655 | 30989 ft | 485 kts | 172° |
| 2026-04-28 16:42 | 34.98589 | 27.10162 | 30981 ft | 486 kts | 172° |
| 2026-04-28 16:43 | 34.91939 | 27.11668 | 30986 ft | 486 kts | 172° |
| 2026-04-28 16:43 | 34.85288 | 27.13172 | 30994 ft | 486 kts | 172° |
| 2026-04-28 16:44 | 34.78629 | 27.14674 | 30992 ft | 487 kts | 172° |
| 2026-04-28 16:44 | 34.71966 | 27.16175 | 30988 ft | 487 kts | 172° |
| 2026-04-28 16:45 | 34.65299 | 27.17676 | 31003 ft | 487 kts | 172° |
| 2026-04-28 16:45 | 34.58626 | 27.19175 | 30999 ft | 488 kts | 172° |
| 2026-04-28 16:46 | 34.51993 | 27.20661 | 30997 ft | 488 kts | 172° |
| 2026-04-28 16:46 | 34.45317 | 27.22156 | 30994 ft | 488 kts | 172° |
| 2026-04-28 16:47 | 34.38631 | 27.23650 | 31002 ft | 488 kts | 172° |
| 2026-04-28 16:47 | 34.31955 | 27.25140 | 31003 ft | 488 kts | 172° |
| 2026-04-28 16:48 | 34.25272 | 27.26629 | 30988 ft | 488 kts | 172° |
| 2026-04-28 16:48 | 34.18590 | 27.28115 | 31003 ft | 488 kts | 172° |
| 2026-04-28 16:49 | 34.11906 | 27.29599 | 31008 ft | 488 kts | 172° |
| 2026-04-28 16:49 | 34.05225 | 27.31081 | 30998 ft | 488 kts | 172° |
| 2026-04-28 16:50 | 33.98538 | 27.32561 | 31005 ft | 488 kts | 172° |
| 2026-04-28 16:50 | 33.91998 | 27.34798 | 31016 ft | 491 kts | 158° |
| 2026-04-28 16:51 | 33.85764 | 27.38178 | 31008 ft | 492 kts | 157° |
| 2026-04-28 16:51 | 33.79531 | 27.41579 | 31003 ft | 492 kts | 157° |
| 2026-04-28 16:52 | 33.73277 | 27.44926 | 31000 ft | 492 kts | 158° |
| 2026-04-28 16:52 | 33.67019 | 27.48236 | 31014 ft | 492 kts | 158° |
| 2026-04-28 16:53 | 33.60793 | 27.51516 | 31008 ft | 492 kts | 158° |
| 2026-04-28 16:53 | 33.54525 | 27.54815 | 31006 ft | 492 kts | 158° |
| 2026-04-28 16:54 | 33.48266 | 27.58106 | 30992 ft | 492 kts | 158° |
| 2026-04-28 16:54 | 33.42002 | 27.61396 | 31003 ft | 491 kts | 158° |
| 2026-04-28 16:55 | 33.35741 | 27.64678 | 31008 ft | 491 kts | 158° |
| 2026-04-28 16:55 | 33.29485 | 27.67953 | 31009 ft | 491 kts | 158° |
| 2026-04-28 16:56 | 33.23220 | 27.71228 | 31009 ft | 491 kts | 158° |
| 2026-04-28 16:56 | 33.16953 | 27.74498 | 31005 ft | 491 kts | 159° |
| 2026-04-28 16:57 | 33.10683 | 27.77765 | 31009 ft | 492 kts | 159° |
| 2026-04-28 16:57 | 33.04413 | 27.81026 | 31006 ft | 492 kts | 159° |
| 2026-04-28 16:58 | 32.98131 | 27.84289 | 31008 ft | 492 kts | 159° |
| 2026-04-28 16:58 | 32.91843 | 27.87550 | 30998 ft | 493 kts | 159° |
| 2026-04-28 16:59 | 32.85554 | 27.90806 | 31015 ft | 493 kts | 159° |
| 2026-04-28 16:59 | 32.79299 | 27.94040 | 31010 ft | 494 kts | 159° |
| 2026-04-28 17:00 | 32.72991 | 27.97295 | 31012 ft | 494 kts | 159° |
| 2026-04-28 17:00 | 32.66677 | 28.00550 | 31019 ft | 495 kts | 159° |
| 2026-04-28 17:01 | 32.60357 | 28.03802 | 31018 ft | 495 kts | 159° |
| 2026-04-28 17:01 | 32.54036 | 28.07049 | 31018 ft | 495 kts | 160° |
| 2026-04-28 17:02 | 32.47703 | 28.10299 | 31015 ft | 495 kts | 160° |
| 2026-04-28 17:02 | 32.41380 | 28.13537 | 31014 ft | 494 kts | 160° |
| 2026-04-28 17:03 | 32.31957 | 28.18355 | 31017 ft | 494 kts | 160° |
| 2026-04-28 17:03 | 32.25651 | 28.21572 | 31017 ft | 494 kts | 160° |
| 2026-04-28 17:04 | 32.16185 | 28.26394 | 31017 ft | 494 kts | 160° |
| 2026-04-28 17:05 | 32.07732 | 28.30690 | 31012 ft | 494 kts | 160° |
| 2026-04-28 17:06 | 31.98286 | 28.35481 | 31018 ft | 496 kts | 160° |
| 2026-04-28 17:06 | 31.88730 | 28.40318 | 31017 ft | 497 kts | 160° |
| 2026-04-28 17:07 | 31.82378 | 28.43520 | 31014 ft | 497 kts | 161° |
| 2026-04-28 17:07 | 31.76010 | 28.46703 | 31023 ft | 497 kts | 161° |
| 2026-04-28 17:08 | 31.69679 | 28.49865 | 31025 ft | 498 kts | 161° |
| 2026-04-28 17:08 | 31.63303 | 28.53049 | 31025 ft | 498 kts | 161° |
| 2026-04-28 17:09 | 31.56919 | 28.56231 | 30999 ft | 499 kts | 162° |
| 2026-04-28 17:09 | 31.50522 | 28.59412 | 31046 ft | 502 kts | 162° |
| 2026-04-28 17:10 | 31.47298 | 28.61013 | 31197 ft | 504 kts | 162° |
| 2026-04-28 17:10 | 31.44066 | 28.62619 | 31494 ft | 503 kts | 162° |
| 2026-04-28 17:10 | 31.40848 | 28.64218 | 31806 ft | 502 kts | 162° |
| 2026-04-28 17:10 | 31.37630 | 28.65816 | 32038 ft | 502 kts | 162° |
| 2026-04-28 17:11 | 31.34412 | 28.67411 | 32242 ft | 503 kts | 162° |
| 2026-04-28 17:11 | 31.31194 | 28.69006 | 32506 ft | 502 kts | 162° |
| 2026-04-28 17:11 | 31.27972 | 28.70601 | 32649 ft | 504 kts | 163° |
| 2026-04-28 17:11 | 31.24732 | 28.72202 | 32740 ft | 507 kts | 163° |
| 2026-04-28 17:12 | 31.21478 | 28.73809 | 32953 ft | 507 kts | 163° |
| 2026-04-28 17:12 | 31.18231 | 28.75415 | 33244 ft | 506 kts | 163° |
| 2026-04-28 17:12 | 31.15036 | 28.76993 | 33494 ft | 506 kts | 163° |
| 2026-04-28 17:12 | 31.11793 | 28.78593 | 33667 ft | 507 kts | 163° |
| 2026-04-28 17:13 | 31.08545 | 28.80193 | 33846 ft | 507 kts | 163° |
| 2026-04-28 17:13 | 31.05245 | 28.81818 | 34053 ft | 507 kts | 163° |
| 2026-04-28 17:13 | 31.01994 | 28.83419 | 34236 ft | 507 kts | 164° |
| 2026-04-28 17:13 | 30.98743 | 28.85018 | 34340 ft | 509 kts | 164° |
| 2026-04-28 17:14 | 30.95526 | 28.86597 | 34489 ft | 509 kts | 164° |
| 2026-04-28 17:14 | 30.92271 | 28.88196 | 34698 ft | 508 kts | 164° |
| 2026-04-28 17:14 | 30.89006 | 28.89800 | 34911 ft | 507 kts | 164° |
| 2026-04-28 17:14 | 30.85768 | 28.91388 | 35007 ft | 507 kts | 165° |
| 2026-04-28 17:15 | 30.79220 | 28.94592 | 35009 ft | 510 kts | 165° |
| 2026-04-28 17:15 | 30.72696 | 28.97785 | 34976 ft | 507 kts | 165° |
| 2026-04-28 17:16 | 30.66206 | 29.00956 | 34989 ft | 505 kts | 165° |
| 2026-04-28 17:16 | 30.59729 | 29.04115 | 34995 ft | 504 kts | 165° |
| 2026-04-28 17:17 | 30.53278 | 29.07282 | 34997 ft | 505 kts | 161° |
| 2026-04-28 17:17 | 30.47334 | 29.11837 | 34991 ft | 522 kts | 142° |
| 2026-04-28 17:18 | 30.42387 | 29.17994 | 34988 ft | 526 kts | 136° |
| 2026-04-28 17:18 | 30.37368 | 29.24154 | 34988 ft | 525 kts | 139° |
| 2026-04-28 17:19 | 30.32231 | 29.30164 | 34984 ft | 525 kts | 139° |
| 2026-04-28 17:19 | 30.27127 | 29.36217 | 34984 ft | 527 kts | 139° |
| 2026-04-28 17:20 | 30.22887 | 29.41291 | 34982 ft | 528 kts | 139° |
| 2026-04-28 17:20 | 30.16911 | 29.48438 | 34984 ft | 529 kts | 139° |
| 2026-04-28 17:21 | 30.11795 | 29.54537 | 34983 ft | 530 kts | 139° |
| 2026-04-28 17:22 | 30.04091 | 29.63696 | 34979 ft | 529 kts | 139° |
| 2026-04-28 17:22 | 29.98989 | 29.69749 | 34987 ft | 529 kts | 139° |
| 2026-04-28 17:23 | 29.91287 | 29.78869 | 34988 ft | 529 kts | 139° |
| 2026-04-28 17:23 | 29.86153 | 29.84937 | 34989 ft | 528 kts | 139° |
| 2026-04-28 17:24 | 29.81031 | 29.90981 | 34990 ft | 527 kts | 139° |
| 2026-04-28 17:24 | 29.75913 | 29.97011 | 34990 ft | 526 kts | 139° |
| 2026-04-28 17:25 | 29.68237 | 30.06037 | 34994 ft | 525 kts | 139° |
| 2026-04-28 17:26 | 29.63123 | 30.12038 | 34986 ft | 525 kts | 139° |
| 2026-04-28 17:26 | 29.58019 | 30.18020 | 34997 ft | 524 kts | 140° |
| 2026-04-28 17:27 | 29.52942 | 30.23960 | 34997 ft | 523 kts | 140° |
| 2026-04-28 17:27 | 29.47805 | 30.29961 | 34992 ft | 523 kts | 140° |
| 2026-04-28 17:28 | 29.42708 | 30.35910 | 34992 ft | 523 kts | 140° |
| 2026-04-28 17:28 | 29.35099 | 30.44853 | 34999 ft | 523 kts | 139° |
| 2026-04-28 17:29 | 29.30055 | 30.50886 | 35001 ft | 524 kts | 139° |
| 2026-04-28 17:30 | 29.22510 | 30.59886 | 35008 ft | 525 kts | 139° |
| 2026-04-28 17:30 | 29.14913 | 30.68902 | 35006 ft | 526 kts | 139° |
| 2026-04-28 17:31 | 29.07279 | 30.77941 | 35006 ft | 527 kts | 139° |
| 2026-04-28 17:32 | 28.99623 | 30.86987 | 34997 ft | 527 kts | 139° |
| 2026-04-28 17:32 | 28.94532 | 30.92990 | 35011 ft | 527 kts | 139° |
| 2026-04-28 17:33 | 28.89432 | 30.98996 | 35008 ft | 527 kts | 140° |
| 2026-04-28 17:33 | 28.85146 | 31.04036 | 35015 ft | 527 kts | 140° |
| 2026-04-28 17:34 | 28.79210 | 31.11005 | 35014 ft | 527 kts | 140° |
| 2026-04-28 17:34 | 28.74093 | 31.17005 | 35012 ft | 527 kts | 140° |
| 2026-04-28 17:35 | 28.68991 | 31.22989 | 34994 ft | 527 kts | 139° |
| 2026-04-28 17:35 | 28.64038 | 31.29156 | 35019 ft | 527 kts | 137° |
| 2026-04-28 17:36 | 28.59160 | 31.35404 | 35019 ft | 528 kts | 137° |
| 2026-04-28 17:36 | 28.54298 | 31.41578 | 35020 ft | 527 kts | 137° |
| 2026-04-28 17:37 | 28.49384 | 31.47759 | 35028 ft | 527 kts | 138° |
| 2026-04-28 17:37 | 28.44447 | 31.53944 | 35025 ft | 527 kts | 138° |
| 2026-04-28 17:38 | 28.39514 | 31.60118 | 35020 ft | 528 kts | 138° |
| 2026-04-28 17:38 | 28.34575 | 31.66294 | 35008 ft | 528 kts | 138° |
| 2026-04-28 17:39 | 28.29633 | 31.72466 | 34990 ft | 528 kts | 139° |
| 2026-04-28 17:40 | 28.22229 | 31.81693 | 35001 ft | 528 kts | 139° |
| 2026-04-28 17:40 | 28.17272 | 31.87861 | 35010 ft | 529 kts | 139° |
| 2026-04-28 17:41 | 28.12314 | 31.94021 | 35011 ft | 529 kts | 139° |
| 2026-04-28 17:41 | 28.07345 | 32.00187 | 35004 ft | 530 kts | 139° |
| 2026-04-28 17:42 | 28.02564 | 32.06564 | 34992 ft | 538 kts | 128° |
| 2026-04-28 17:42 | 27.98879 | 32.13996 | 34988 ft | 543 kts | 122° |
| 2026-04-28 17:43 | 27.95382 | 32.21517 | 34997 ft | 542 kts | 122° |
| 2026-04-28 17:43 | 27.91826 | 32.29031 | 34945 ft | 543 kts | 123° |
| 2026-04-28 17:44 | 27.88213 | 32.36510 | 34909 ft | 540 kts | 123° |
| 2026-04-28 17:44 | 27.84597 | 32.43946 | 34914 ft | 540 kts | 123° |
| 2026-04-28 17:45 | 27.80983 | 32.51387 | 34928 ft | 540 kts | 123° |
| 2026-04-28 17:45 | 27.77393 | 32.58775 | 34925 ft | 540 kts | 123° |
| 2026-04-28 17:46 | 27.73753 | 32.66254 | 34921 ft | 540 kts | 124° |
| 2026-04-28 17:46 | 27.70128 | 32.73685 | 34929 ft | 542 kts | 124° |
| 2026-04-28 17:47 | 27.66479 | 32.81151 | 34915 ft | 543 kts | 124° |
| 2026-04-28 17:47 | 27.62850 | 32.88564 | 34943 ft | 544 kts | 124° |
| 2026-04-28 17:48 | 27.59180 | 32.96044 | 34926 ft | 545 kts | 124° |
| 2026-04-28 17:48 | 27.55504 | 33.03533 | 34926 ft | 546 kts | 124° |
| 2026-04-28 17:49 | 27.51820 | 33.11023 | 34923 ft | 546 kts | 124° |
| 2026-04-28 17:49 | 27.48138 | 33.18494 | 34917 ft | 546 kts | 124° |
| 2026-04-28 17:50 | 27.44447 | 33.25970 | 34926 ft | 546 kts | 124° |
| 2026-04-28 17:50 | 27.40755 | 33.33436 | 34927 ft | 545 kts | 124° |
| 2026-04-28 17:51 | 27.37064 | 33.40887 | 34922 ft | 545 kts | 124° |
| 2026-04-28 17:51 | 27.33374 | 33.48325 | 34908 ft | 543 kts | 124° |
| 2026-04-28 17:52 | 27.29688 | 33.55744 | 34918 ft | 543 kts | 124° |
| 2026-04-28 17:52 | 27.24151 | 33.66870 | 34931 ft | 544 kts | 124° |
| 2026-04-28 17:53 | 27.21079 | 33.73031 | 34926 ft | 544 kts | 124° |
| 2026-04-28 17:53 | 27.17413 | 33.80486 | 34911 ft | 547 kts | 120° |
| 2026-04-28 17:54 | 27.14480 | 33.88409 | 34916 ft | 551 kts | 115° |
| 2026-04-28 17:54 | 27.11755 | 33.96463 | 34889 ft | 552 kts | 115° |
| 2026-04-28 17:55 | 27.08945 | 34.04489 | 34910 ft | 552 kts | 116° |
| 2026-04-28 17:55 | 27.06082 | 34.12464 | 34910 ft | 552 kts | 116° |
| 2026-04-28 17:56 | 27.03210 | 34.20459 | 34908 ft | 553 kts | 116° |
| 2026-04-28 17:56 | 27.00339 | 34.28464 | 34901 ft | 553 kts | 116° |
| 2026-04-28 17:57 | 26.97467 | 34.36475 | 34901 ft | 554 kts | 116° |
| 2026-04-28 17:57 | 26.94611 | 34.44432 | 34896 ft | 554 kts | 116° |
| 2026-04-28 17:58 | 26.91732 | 34.52435 | 34890 ft | 553 kts | 116° |
| 2026-04-28 17:58 | 26.88830 | 34.60483 | 34893 ft | 553 kts | 116° |
| 2026-04-28 17:59 | 26.85967 | 34.68405 | 34890 ft | 553 kts | 116° |
| 2026-04-28 17:59 | 26.83077 | 34.76389 | 34875 ft | 552 kts | 117° |
| 2026-04-28 18:00 | 26.80191 | 34.84345 | 34879 ft | 552 kts | 117° |
| 2026-04-28 18:00 | 26.77299 | 34.92302 | 34881 ft | 551 kts | 117° |
| 2026-04-28 18:01 | 26.74402 | 35.00235 | 34859 ft | 551 kts | 117° |
| 2026-04-28 18:01 | 26.71490 | 35.08172 | 34870 ft | 550 kts | 117° |
| 2026-04-28 18:02 | 26.68585 | 35.16080 | 34879 ft | 550 kts | 117° |
| 2026-04-28 18:02 | 26.65677 | 35.23985 | 34877 ft | 550 kts | 117° |
| 2026-04-28 18:03 | 26.62754 | 35.31918 | 34867 ft | 550 kts | 117° |
| 2026-04-28 18:03 | 26.59835 | 35.39824 | 34873 ft | 551 kts | 117° |
| 2026-04-28 18:04 | 26.56932 | 35.47670 | 34871 ft | 551 kts | 117° |
| 2026-04-28 18:04 | 26.53960 | 35.55555 | 34868 ft | 550 kts | 118° |
| 2026-04-28 18:05 | 26.51426 | 35.62143 | 34874 ft | 551 kts | 118° |
| 2026-04-28 18:05 | 26.47910 | 35.71274 | 34872 ft | 551 kts | 118° |
| 2026-04-28 18:06 | 26.44892 | 35.79129 | 34821 ft | 551 kts | 119° |
| 2026-04-28 18:06 | 26.41877 | 35.86976 | 34865 ft | 550 kts | 119° |
| 2026-04-28 18:07 | 26.38851 | 35.94830 | 34869 ft | 551 kts | 119° |
| 2026-04-28 18:07 | 26.35818 | 36.02687 | 34876 ft | 551 kts | 119° |
| 2026-04-28 18:08 | 26.32781 | 36.10536 | 34872 ft | 552 kts | 119° |
| 2026-04-28 18:08 | 26.29743 | 36.18375 | 34875 ft | 552 kts | 119° |
| 2026-04-28 18:09 | 26.26692 | 36.26234 | 34866 ft | 552 kts | 119° |
| 2026-04-28 18:09 | 26.23636 | 36.34091 | 34889 ft | 552 kts | 119° |
| 2026-04-28 18:10 | 26.20600 | 36.41881 | 34876 ft | 552 kts | 119° |
| 2026-04-28 18:10 | 26.17520 | 36.49704 | 34888 ft | 550 kts | 122° |
| 2026-04-28 18:11 | 26.13970 | 36.57194 | 34885 ft | 545 kts | 126° |
| 2026-04-28 18:11 | 26.10203 | 36.64586 | 34874 ft | 545 kts | 127° |
| 2026-04-28 18:12 | 26.06523 | 36.71905 | 34877 ft | 546 kts | 126° |
| 2026-04-28 18:12 | 26.02866 | 36.79303 | 34864 ft | 546 kts | 126° |
| 2026-04-28 18:13 | 25.99224 | 36.86693 | 34872 ft | 546 kts | 126° |
| 2026-04-28 18:13 | 25.95571 | 36.94080 | 34879 ft | 545 kts | 126° |
| 2026-04-28 18:14 | 25.91905 | 37.01473 | 34877 ft | 545 kts | 126° |
| 2026-04-28 18:14 | 25.88245 | 37.08842 | 34894 ft | 545 kts | 126° |
| 2026-04-28 18:15 | 25.84583 | 37.16202 | 34897 ft | 545 kts | 126° |
| 2026-04-28 18:15 | 25.80914 | 37.23568 | 34882 ft | 545 kts | 126° |
| 2026-04-28 18:16 | 25.77250 | 37.30920 | 34892 ft | 544 kts | 126° |
| 2026-04-28 18:16 | 25.73591 | 37.38265 | 34855 ft | 543 kts | 126° |
| 2026-04-28 18:17 | 25.69946 | 37.45575 | 34899 ft | 542 kts | 126° |
| 2026-04-28 18:17 | 25.66289 | 37.52895 | 34888 ft | 542 kts | 126° |
| 2026-04-28 18:18 | 25.62633 | 37.60201 | 34897 ft | 542 kts | 126° |
| 2026-04-28 18:18 | 25.59601 | 37.66259 | 34899 ft | 542 kts | 126° |
| 2026-04-28 18:19 | 25.55313 | 37.74789 | 34879 ft | 542 kts | 126° |
| 2026-04-28 18:19 | 25.51669 | 37.82030 | 34876 ft | 542 kts | 126° |
| 2026-04-28 18:20 | 25.47999 | 37.89318 | 34893 ft | 542 kts | 126° |
| 2026-04-28 18:20 | 25.44328 | 37.96595 | 34865 ft | 542 kts | 126° |
| 2026-04-28 18:21 | 25.40651 | 38.03870 | 34864 ft | 541 kts | 126° |
| 2026-04-28 18:21 | 25.36975 | 38.11135 | 34845 ft | 541 kts | 126° |
| 2026-04-28 18:22 | 25.33308 | 38.18372 | 34871 ft | 538 kts | 126° |
| 2026-04-28 18:22 | 25.29644 | 38.25591 | 34844 ft | 538 kts | 126° |
| 2026-04-28 18:23 | 25.25977 | 38.32798 | 34854 ft | 538 kts | 126° |